sensor_id;sensor_type;location;lat;lon;timestamp;pressure;altitude;pressure_sealevel;temperature;humidity
12969;BME280;6549;53.128;8.182;2023-03-25T00:02:22;99706.06;;;8.50;100.00
12969;BME280;6549;53.128;8.182;2023-03-25T00:05:23;99711.56;;;8.50;100.00
12969;BME280;6549;53.128;8.182;2023-03-25T00:08:23;99711.56;;;8.50;100.00
12969;BME280;6549;53.128;8.182;2023-03-25T00:11:24;99698.25;;;8.52;100.00
12969;BME280;6549;53.128;8.182;2023-03-25T00:14:24;99705.69;;;8.55;100.00
12969;BME280;6549;53.128;8.182;2023-03-25T00:17:25;99700.22;;;8.52;100.00
12969;BME280;6549;53.128;8.182;2023-03-25T00:20:27;99697.50;;;8.48;100.00
12969;BME280;6549;53.128;8.182;2023-03-25T00:23:29;99689.25;;;8.52;100.00
12969;BME280;6549;53.128;8.182;2023-03-25T00:26:30;99692.78;;;8.52;100.00
12969;BME280;6549;53.128;8.182;2023-03-25T00:29:31;99689.66;;;8.50;100.00
12969;BME280;6549;53.128;8.182;2023-03-25T00:32:31;99681.44;;;8.57;100.00
12969;BME280;6549;53.128;8.182;2023-03-25T00:35:32;99690.38;;;8.69;100.00
12969;BME280;6549;53.128;8.182;2023-03-25T00:38:33;99682.56;;;8.67;100.00
12969;BME280;6549;53.128;8.182;2023-03-25T00:41:34;99690.38;;;8.69;100.00
12969;BME280;6549;53.128;8.182;2023-03-25T00:44:36;99692.66;;;8.81;100.00
12969;BME280;6549;53.128;8.182;2023-03-25T00:47:36;99692.28;;;8.79;100.00
12969;BME280;6549;53.128;8.182;2023-03-25T00:50:37;99691.47;;;8.82;100.00
12969;BME280;6549;53.128;8.182;2023-03-25T00:53:37;99687.53;;;8.86;100.00
12969;BME280;6549;53.128;8.182;2023-03-25T00:56:38;99684.41;;;8.88;100.00
12969;BME280;6549;53.128;8.182;2023-03-25T00:59:38;99693.00;;;8.93;100.00
12969;BME280;6549;53.128;8.182;2023-03-25T01:02:39;99684.78;;;8.90;100.00
12969;BME280;6549;53.128;8.182;2023-03-25T01:05:40;99687.50;;;8.93;100.00
12969;BME280;6549;53.128;8.182;2023-03-25T01:08:41;99680.84;;;8.91;100.00
12969;BME280;6549;53.128;8.182;2023-03-25T01:11:43;99687.91;;;8.92;100.00
12969;BME280;6549;53.128;8.182;2023-03-25T01:14:43;99679.28;;;8.93;100.00
12969;BME280;6549;53.128;8.182;2023-03-25T01:17:43;99677.75;;;8.89;100.00
12969;BME280;6549;53.128;8.182;2023-03-25T01:20:44;99673.41;;;8.95;100.00
12969;BME280;6549;53.128;8.182;2023-03-25T01:23:44;99680.84;;;8.94;100.00
12969;BME280;6549;53.128;8.182;2023-03-25T01:26:45;99674.97;;;8.96;100.00
12969;BME280;6549;53.128;8.182;2023-03-25T01:29:45;99688.28;;;8.97;100.00
12969;BME280;6549;53.128;8.182;2023-03-25T01:32:45;99673.75;;;9.04;100.00
12969;BME280;6549;53.128;8.182;2023-03-25T01:35:46;99674.63;;;8.87;100.00
12969;BME280;6549;53.128;8.182;2023-03-25T01:38:46;99668.38;;;8.83;100.00
12969;BME280;6549;53.128;8.182;2023-03-25T01:41:48;99669.53;;;8.89;100.00
12969;BME280;6549;53.128;8.182;2023-03-25T01:48:19;99658.91;;;8.94;100.00
12969;BME280;6549;53.128;8.182;2023-03-25T01:51:23;99648.41;;;8.89;100.00
12969;BME280;6549;53.128;8.182;2023-03-25T01:54:26;99663.63;;;8.90;100.00
12969;BME280;6549;53.128;8.182;2023-03-25T01:57:27;99653.47;;;8.91;100.00
12969;BME280;6549;53.128;8.182;2023-03-25T02:00:30;99653.09;;;8.89;100.00
12969;BME280;6549;53.128;8.182;2023-03-25T02:03:31;99645.63;;;8.93;100.00
12969;BME280;6549;53.128;8.182;2023-03-25T02:06:43;99647.22;;;8.87;100.00
12969;BME280;6549;53.128;8.182;2023-03-25T02:09:44;99643.72;;;8.83;100.00
12969;BME280;6549;53.128;8.182;2023-03-25T02:12:44;99642.13;;;8.89;100.00
12969;BME280;6549;53.128;8.182;2023-03-25T02:29:06;99643.38;;;8.77;100.00
12969;BME280;6549;53.128;8.182;2023-03-25T02:32:36;99634.75;;;8.79;100.00
12969;BME280;6549;53.128;8.182;2023-03-25T02:39:33;99632.06;;;8.72;100.00
12969;BME280;6549;53.128;8.182;2023-03-25T02:43:00;99627.72;;;8.78;100.00
12969;BME280;6549;53.128;8.182;2023-03-25T02:46:03;99622.69;;;8.66;100.00
12969;BME280;6549;53.128;8.182;2023-03-25T02:49:19;99625.44;;;8.66;100.00
12969;BME280;6549;53.128;8.182;2023-03-25T02:52:24;99627.00;;;8.63;100.00
12969;BME280;6549;53.128;8.182;2023-03-25T02:55:27;99625.03;;;8.64;100.00
12969;BME280;6549;53.128;8.182;2023-03-25T02:58:30;99626.63;;;8.65;100.00
12969;BME280;6549;53.128;8.182;2023-03-25T03:01:32;99630.16;;;8.62;100.00
12969;BME280;6549;53.128;8.182;2023-03-25T03:04:54;99619.97;;;8.58;100.00
12969;BME280;6549;53.128;8.182;2023-03-25T03:08:13;99616.47;;;8.62;100.00
12969;BME280;6549;53.128;8.182;2023-03-25T03:14:30;99624.28;;;8.60;100.00
12969;BME280;6549;53.128;8.182;2023-03-25T03:17:43;99611.81;;;8.51;100.00
12969;BME280;6549;53.128;8.182;2023-03-25T03:20:55;99614.59;;;8.44;100.00
12969;BME280;6549;53.128;8.182;2023-03-25T03:27:12;99630.25;;;8.40;100.00
12969;BME280;6549;53.128;8.182;2023-03-25T03:30:21;99628.69;;;8.39;100.00
12969;BME280;6549;53.128;8.182;2023-03-25T03:33:30;99633.38;;;8.42;100.00
12969;BME280;6549;53.128;8.182;2023-03-25T03:36:38;99634.94;;;8.43;100.00
12969;BME280;6549;53.128;8.182;2023-03-25T03:39:40;99630.25;;;8.44;100.00
12969;BME280;6549;53.128;8.182;2023-03-25T03:42:49;99635.72;;;8.37;100.00
12969;BME280;6549;53.128;8.182;2023-03-25T03:45:55;99634.19;;;8.32;100.00
12969;BME280;6549;53.128;8.182;2023-03-25T03:48:59;99638.91;;;8.32;100.00
12969;BME280;6549;53.128;8.182;2023-03-25T03:52:06;99638.13;;;8.31;100.00
12969;BME280;6549;53.128;8.182;2023-03-25T03:55:19;99629.94;;;8.17;100.00
12969;BME280;6549;53.128;8.182;2023-03-25T03:58:28;99634.25;;;8.07;100.00
12969;BME280;6549;53.128;8.182;2023-03-25T04:01:39;99648.72;;;7.97;100.00
12969;BME280;6549;53.128;8.182;2023-03-25T04:04:44;99644.44;;;7.93;100.00
12969;BME280;6549;53.128;8.182;2023-03-25T04:07:52;99646.03;;;7.87;100.00
12969;BME280;6549;53.128;8.182;2023-03-25T04:11:09;99632.75;;;7.82;100.00
12969;BME280;6549;53.128;8.182;2023-03-25T04:14:12;99644.06;;;7.80;100.00
12969;BME280;6549;53.128;8.182;2023-03-25T04:17:13;99648.38;;;7.78;100.00
12969;BME280;6549;53.128;8.182;2023-03-25T04:20:15;99646.03;;;7.80;100.00
12969;BME280;6549;53.128;8.182;2023-03-25T04:23:16;99641.34;;;7.84;100.00
12969;BME280;6549;53.128;8.182;2023-03-25T04:26:17;99647.22;;;7.79;100.00
12969;BME280;6549;53.128;8.182;2023-03-25T04:29:18;99643.31;;;7.83;100.00
12969;BME280;6549;53.128;8.182;2023-03-25T04:32:19;99635.88;;;7.77;100.00
12969;BME280;6549;53.128;8.182;2023-03-25T04:35:19;99641.34;;;7.77;100.00
12969;BME280;6549;53.128;8.182;2023-03-25T04:38:20;99651.13;;;7.74;100.00
12969;BME280;6549;53.128;8.182;2023-03-25T04:41:22;99642.16;;;7.74;100.00
12969;BME280;6549;53.128;8.182;2023-03-25T04:44:22;99649.97;;;7.79;100.00
12969;BME280;6549;53.128;8.182;2023-03-25T04:47:25;99646.44;;;7.82;100.00
12969;BME280;6549;53.128;8.182;2023-03-25T04:50:27;99644.88;;;7.77;100.00
12969;BME280;6549;53.128;8.182;2023-03-25T04:53:28;99640.56;;;7.76;100.00
12969;BME280;6549;53.128;8.182;2023-03-25T04:56:28;99646.41;;;7.75;100.00
12969;BME280;6549;53.128;8.182;2023-03-25T04:59:29;99635.91;;;7.73;100.00
12969;BME280;6549;53.128;8.182;2023-03-25T05:02:29;99641.38;;;7.73;100.00
12969;BME280;6549;53.128;8.182;2023-03-25T05:05:30;99638.22;;;7.75;100.00
12969;BME280;6549;53.128;8.182;2023-03-25T05:08:30;99641.75;;;7.75;100.00
12969;BME280;6549;53.128;8.182;2023-03-25T05:11:32;99642.91;;;7.81;100.00
12969;BME280;6549;53.128;8.182;2023-03-25T05:14:33;99646.81;;;7.84;100.00
12969;BME280;6549;53.128;8.182;2023-03-25T05:17:33;99649.94;;;7.82;100.00
12969;BME280;6549;53.128;8.182;2023-03-25T05:20:37;99636.63;;;7.88;100.00
12969;BME280;6549;53.128;8.182;2023-03-25T05:23:38;99649.13;;;7.89;100.00
12969;BME280;6549;53.128;8.182;2023-03-25T05:26:41;99641.34;;;7.87;100.00
12969;BME280;6549;53.128;8.182;2023-03-25T05:29:41;99641.72;;;7.89;100.00
12969;BME280;6549;53.128;8.182;2023-03-25T05:32:43;99641.34;;;7.91;100.00
12969;BME280;6549;53.128;8.182;2023-03-25T05:35:45;99639.75;;;7.93;100.00
12969;BME280;6549;53.128;8.182;2023-03-25T05:38:45;99636.63;;;7.88;100.00
12969;BME280;6549;53.128;8.182;2023-03-25T05:41:45;99648.38;;;7.92;100.00
12969;BME280;6549;53.128;8.182;2023-03-25T05:44:46;99649.91;;;7.93;100.00
12969;BME280;6549;53.128;8.182;2023-03-25T05:47:50;99649.13;;;7.89;100.00
12969;BME280;6549;53.128;8.182;2023-03-25T05:50:51;99655.38;;;7.93;100.00
12969;BME280;6549;53.128;8.182;2023-03-25T05:53:55;99652.25;;;7.94;100.00
12969;BME280;6549;53.128;8.182;2023-03-25T05:56:55;99649.13;;;7.99;100.00
12969;BME280;6549;53.128;8.182;2023-03-25T05:59:56;99658.09;;;8.07;100.00
12969;BME280;6549;53.128;8.182;2023-03-25T06:02:56;99654.56;;;8.13;100.00
12969;BME280;6549;53.128;8.182;2023-03-25T06:05:58;99659.66;;;8.19;100.00
12969;BME280;6549;53.128;8.182;2023-03-25T06:08:58;99649.88;;;8.10;100.00
12969;BME280;6549;53.128;8.182;2023-03-25T06:11:58;99653.78;;;8.13;100.00
12969;BME280;6549;53.128;8.182;2023-03-25T06:15:00;99657.31;;;8.03;100.00
12969;BME280;6549;53.128;8.182;2023-03-25T06:18:01;99650.69;;;8.04;100.00
12969;BME280;6549;53.128;8.182;2023-03-25T06:21:01;99656.53;;;8.09;100.00
12969;BME280;6549;53.128;8.182;2023-03-25T06:24:02;99656.91;;;8.15;100.00
12969;BME280;6549;53.128;8.182;2023-03-25T06:27:04;99651.41;;;8.22;100.00
12969;BME280;6549;53.128;8.182;2023-03-25T06:30:10;99655.72;;;8.30;100.00
12969;BME280;6549;53.128;8.182;2023-03-25T06:33:11;99651.81;;;8.31;100.00
12969;BME280;6549;53.128;8.182;2023-03-25T06:36:14;99648.25;;;8.34;100.00
12969;BME280;6549;53.128;8.182;2023-03-25T06:39:17;99653.34;;;8.32;100.00
12969;BME280;6549;53.128;8.182;2023-03-25T06:42:18;99651.78;;;8.38;100.00
12969;BME280;6549;53.128;8.182;2023-03-25T06:45:18;99650.19;;;8.41;100.00
12969;BME280;6549;53.128;8.182;2023-03-25T06:48:19;99652.94;;;8.44;100.00
12969;BME280;6549;53.128;8.182;2023-03-25T06:51:19;99655.63;;;8.51;100.00
12969;BME280;6549;53.128;8.182;2023-03-25T06:54:21;99667.66;;;8.68;100.00
12969;BME280;6549;53.128;8.182;2023-03-25T06:57:22;99661.03;;;8.69;100.00
12969;BME280;6549;53.128;8.182;2023-03-25T07:00:22;99672.78;;;8.66;100.00
12969;BME280;6549;53.128;8.182;2023-03-25T07:03:23;99661.44;;;8.61;100.00
12969;BME280;6549;53.128;8.182;2023-03-25T07:06:24;99662.22;;;8.65;100.00
12969;BME280;6549;53.128;8.182;2023-03-25T07:09:24;99670.13;;;8.48;100.00
12969;BME280;6549;53.128;8.182;2023-03-25T07:12:25;99673.25;;;8.43;100.00
12969;BME280;6549;53.128;8.182;2023-03-25T07:15:25;99661.19;;;8.30;100.00
12969;BME280;6549;53.128;8.182;2023-03-25T07:18:26;99673.31;;;8.22;100.00
12969;BME280;6549;53.128;8.182;2023-03-25T07:21:26;99687.78;;;8.23;100.00
12969;BME280;6549;53.128;8.182;2023-03-25T07:24:27;99681.56;;;8.01;100.00
12969;BME280;6549;53.128;8.182;2023-03-25T07:27:27;99686.28;;;7.86;100.00
12969;BME280;6549;53.128;8.182;2023-03-25T07:30:27;99704.66;;;7.82;100.00
12969;BME280;6549;53.128;8.182;2023-03-25T07:33:27;99702.69;;;7.76;100.00
12969;BME280;6549;53.128;8.182;2023-03-25T07:36:28;99686.28;;;7.58;100.00
12969;BME280;6549;53.128;8.182;2023-03-25T07:39:28;99693.31;;;7.48;100.00
12969;BME280;6549;53.128;8.182;2023-03-25T07:42:28;99687.06;;;7.34;100.00
12969;BME280;6549;53.128;8.182;2023-03-25T07:45:29;99693.69;;;7.29;100.00
12969;BME280;6549;53.128;8.182;2023-03-25T07:48:29;99699.50;;;7.17;100.00
12969;BME280;6549;53.128;8.182;2023-03-25T07:51:30;99688.97;;;7.08;100.00
12969;BME280;6549;53.128;8.182;2023-03-25T07:54:32;99689.00;;;7.12;100.00
12969;BME280;6549;53.128;8.182;2023-03-25T07:57:32;99689.00;;;7.15;100.00
12969;BME280;6549;53.128;8.182;2023-03-25T08:00:32;99683.53;;;7.19;100.00
12969;BME280;6549;53.128;8.182;2023-03-25T08:03:33;99683.56;;;7.30;100.00
12969;BME280;6549;53.128;8.182;2023-03-25T08:06:34;99687.47;;;7.46;100.00
12969;BME280;6549;53.128;8.182;2023-03-25T08:09:34;99682.78;;;7.64;100.00
12969;BME280;6549;53.128;8.182;2023-03-25T08:12:34;99686.22;;;8.11;100.00
12969;BME280;6549;53.128;8.182;2023-03-25T08:15:37;99695.47;;;8.60;100.00
12969;BME280;6549;53.128;8.182;2023-03-25T08:18:37;99690.16;;;9.11;100.00
12969;BME280;6549;53.128;8.182;2023-03-25T08:21:38;99688.47;;;9.28;100.00
12969;BME280;6549;53.128;8.182;2023-03-25T08:24:38;99693.75;;;9.53;100.00
12969;BME280;6549;53.128;8.182;2023-03-25T08:27:38;99690.53;;;9.65;100.00
12969;BME280;6549;53.128;8.182;2023-03-25T08:30:39;99683.09;;;9.62;100.00
12969;BME280;6549;53.128;8.182;2023-03-25T08:33:39;99681.84;;;9.70;100.00
12969;BME280;6549;53.128;8.182;2023-03-25T08:36:40;99675.44;;;9.87;100.00
12969;BME280;6549;53.128;8.182;2023-03-25T08:39:41;99679.88;;;9.74;100.00
12969;BME280;6549;53.128;8.182;2023-03-25T08:42:44;99676.38;;;9.73;100.00
12969;BME280;6549;53.128;8.182;2023-03-25T08:45:45;99680.13;;;9.90;100.00
12969;BME280;6549;53.128;8.182;2023-03-25T08:48:45;99675.38;;;9.94;100.00
12969;BME280;6549;53.128;8.182;2023-03-25T08:51:47;99667.19;;;9.90;100.00
12969;BME280;6549;53.128;8.182;2023-03-25T08:54:47;99674.63;;;9.90;100.00
12969;BME280;6549;53.128;8.182;2023-03-25T08:57:48;99668.50;;;9.75;100.00
12969;BME280;6549;53.128;8.182;2023-03-25T09:00:53;99672.97;;;9.59;100.00
12969;BME280;6549;53.128;8.182;2023-03-25T09:03:54;99679.69;;;9.47;100.00
12969;BME280;6549;53.128;8.182;2023-03-25T09:06:56;99676.66;;;9.38;100.00
12969;BME280;6549;53.128;8.182;2023-03-25T09:09:57;99674.41;;;9.22;100.00
12969;BME280;6549;53.128;8.182;2023-03-25T09:12:58;99677.59;;;9.14;100.00
12969;BME280;6549;53.128;8.182;2023-03-25T09:15:58;99678.09;;;8.98;100.00
12969;BME280;6549;53.128;8.182;2023-03-25T09:18:59;99666.78;;;8.85;100.00
12969;BME280;6549;53.128;8.182;2023-03-25T09:21:59;99652.38;;;8.74;100.00
12969;BME280;6549;53.128;8.182;2023-03-25T09:25:00;99641.88;;;8.66;100.00
12969;BME280;6549;53.128;8.182;2023-03-25T09:28:00;99638.41;;;8.58;100.00
12969;BME280;6549;53.128;8.182;2023-03-25T09:31:01;99634.88;;;8.57;100.00
12969;BME280;6549;53.128;8.182;2023-03-25T09:34:01;99668.53;;;8.58;100.00
12969;BME280;6549;53.128;8.182;2023-03-25T09:37:02;99696.66;;;8.62;100.00
12969;BME280;6549;53.128;8.182;2023-03-25T09:40:03;99706.06;;;8.57;100.00
12969;BME280;6549;53.128;8.182;2023-03-25T09:46:21;99701.81;;;8.42;100.00
12969;BME280;6549;53.128;8.182;2023-03-25T09:49:23;99703.75;;;8.42;100.00
12969;BME280;6549;53.128;8.182;2023-03-25T09:52:35;99700.66;;;8.36;100.00
12969;BME280;6549;53.128;8.182;2023-03-25T09:55:41;99714.75;;;8.31;100.00
12969;BME280;6549;53.128;8.182;2023-03-25T09:58:46;99710.81;;;8.25;100.00
12969;BME280;6549;53.128;8.182;2023-03-25T10:02:27;99721.41;;;8.30;100.00
12969;BME280;6549;53.128;8.182;2023-03-25T10:05:49;99713.59;;;8.18;100.00
12969;BME280;6549;53.128;8.182;2023-03-25T10:09:04;99726.88;;;8.16;100.00
12969;BME280;6549;53.128;8.182;2023-03-25T10:18:45;99726.88;;;8.34;100.00
12969;BME280;6549;53.128;8.182;2023-03-25T10:22:04;99721.34;;;8.51;100.00
12969;BME280;6549;53.128;8.182;2023-03-25T10:25:11;99711.44;;;8.82;100.00
12969;BME280;6549;53.128;8.182;2023-03-25T10:28:19;99710.38;;;9.31;100.00
12969;BME280;6549;53.128;8.182;2023-03-25T10:31:23;99704.19;;;9.72;100.00
12969;BME280;6549;53.128;8.182;2023-03-25T10:34:35;99696.50;;;9.97;100.00
12969;BME280;6549;53.128;8.182;2023-03-25T10:37:39;99701.97;;;10.01;100.00
12969;BME280;6549;53.128;8.182;2023-03-25T10:44:10;99689.56;;;10.30;100.00
12969;BME280;6549;53.128;8.182;2023-03-25T10:47:15;99691.97;;;10.24;100.00
12969;BME280;6549;53.128;8.182;2023-03-25T10:50:29;99691.66;;;10.12;100.00
12969;BME280;6549;53.128;8.182;2023-03-25T10:53:30;99693.38;;;9.99;100.00
12969;BME280;6549;53.128;8.182;2023-03-25T10:56:38;99698.44;;;10.00;100.00
12969;BME280;6549;53.128;8.182;2023-03-25T11:00:08;99700.44;;;9.96;100.00
12969;BME280;6549;53.128;8.182;2023-03-25T11:03:26;99717.56;;;10.52;100.00
12969;BME280;6549;53.128;8.182;2023-03-25T11:06:33;99705.91;;;11.05;100.00
12969;BME280;6549;53.128;8.182;2023-03-25T11:09:33;99703.63;;;11.26;100.00
12969;BME280;6549;53.128;8.182;2023-03-25T11:12:36;99723.13;;;11.36;100.00
12969;BME280;6549;53.128;8.182;2023-03-25T11:15:39;99704.75;;;11.29;100.00
12969;BME280;6549;53.128;8.182;2023-03-25T11:18:40;99701.97;;;11.33;100.00
12969;BME280;6549;53.128;8.182;2023-03-25T11:21:46;99700.88;;;11.26;100.00
12969;BME280;6549;53.128;8.182;2023-03-25T11:24:49;99700.06;;;10.99;100.00
12969;BME280;6549;53.128;8.182;2023-03-25T11:28:09;99713.47;;;10.63;100.00
12969;BME280;6549;53.128;8.182;2023-03-25T11:31:15;99717.50;;;10.21;100.00
12969;BME280;6549;53.128;8.182;2023-03-25T11:34:21;99716.41;;;10.08;100.00
12969;BME280;6549;53.128;8.182;2023-03-25T11:37:22;99711.41;;;10.00;100.00
12969;BME280;6549;53.128;8.182;2023-03-25T11:40:24;99716.75;;;10.17;100.00
12969;BME280;6549;53.128;8.182;2023-03-25T11:43:28;99715.78;;;10.34;100.00
12969;BME280;6549;53.128;8.182;2023-03-25T11:46:31;99697.38;;;10.65;100.00
12969;BME280;6549;53.128;8.182;2023-03-25T11:49:35;99697.97;;;10.80;100.00
12969;BME280;6549;53.128;8.182;2023-03-25T11:52:43;99701.88;;;10.82;100.00
12969;BME280;6549;53.128;8.182;2023-03-25T11:55:47;99689.19;;;11.46;100.00
12969;BME280;6549;53.128;8.182;2023-03-25T11:58:49;99687.66;;;11.91;100.00
12969;BME280;6549;53.128;8.182;2023-03-25T12:01:59;99697.00;;;11.97;100.00
12969;BME280;6549;53.128;8.182;2023-03-25T12:05:10;99703.13;;;11.58;100.00
12969;BME280;6549;53.128;8.182;2023-03-25T12:08:16;99695.88;;;11.45;100.00
12969;BME280;6549;53.128;8.182;2023-03-25T12:11:30;99701.69;;;11.50;100.00
12969;BME280;6549;53.128;8.182;2023-03-25T12:21:41;99676.00;;;11.84;100.00
12969;BME280;6549;53.128;8.182;2023-03-25T12:28:40;99660.69;;;12.45;100.00
12969;BME280;6549;53.128;8.182;2023-03-25T12:41:30;99661.09;;;12.64;100.00
12969;BME280;6549;53.128;8.182;2023-03-25T12:48:44;99697.16;;;11.63;100.00
12969;BME280;6549;53.128;8.182;2023-03-25T12:51:59;99684.56;;;11.12;100.00
12969;BME280;6549;53.128;8.182;2023-03-25T12:55:34;99685.56;;;11.25;100.00
12969;BME280;6549;53.128;8.182;2023-03-25T12:58:45;99668.06;;;11.89;100.00
12969;BME280;6549;53.128;8.182;2023-03-25T13:05:09;99642.66;;;12.60;100.00
12969;BME280;6549;53.128;8.182;2023-03-25T13:08:19;99647.34;;;12.80;100.00
12969;BME280;6549;53.128;8.182;2023-03-25T13:21:31;99645.28;;;12.48;100.00
12969;BME280;6549;53.128;8.182;2023-03-25T13:24:46;99669.91;;;12.15;100.00
12969;BME280;6549;53.128;8.182;2023-03-25T13:27:49;99678.72;;;11.60;100.00
12969;BME280;6549;53.128;8.182;2023-03-25T13:30:52;99692.56;;;11.03;100.00
12969;BME280;6549;53.128;8.182;2023-03-25T13:37:22;99686.38;;;10.31;100.00
12969;BME280;6549;53.128;8.182;2023-03-25T13:40:31;99664.25;;;10.08;100.00
12969;BME280;6549;53.128;8.182;2023-03-25T13:43:41;99662.00;;;10.00;100.00
12969;BME280;6549;53.128;8.182;2023-03-25T13:46:50;99656.38;;;10.10;100.00
12969;BME280;6549;53.128;8.182;2023-03-25T13:50:06;99648.59;;;10.05;100.00
12969;BME280;6549;53.128;8.182;2023-03-25T14:13:57;99632.06;;;11.30;100.00
12969;BME280;6549;53.128;8.182;2023-03-25T14:17:00;99645.75;;;11.34;100.00
12969;BME280;6549;53.128;8.182;2023-03-25T14:20:06;99636.72;;;11.33;100.00
12969;BME280;6549;53.128;8.182;2023-03-25T14:23:16;99630.75;;;11.61;100.00
12969;BME280;6549;53.128;8.182;2023-03-25T14:26:17;99627.47;;;11.93;100.00
12969;BME280;6549;53.128;8.182;2023-03-25T14:29:36;99623.03;;;12.19;100.00
12969;BME280;6549;53.128;8.182;2023-03-25T14:32:39;99631.50;;;12.48;100.00
12969;BME280;6549;53.128;8.182;2023-03-25T14:35:44;99639.53;;;12.58;100.00
12969;BME280;6549;53.128;8.182;2023-03-25T14:38:53;99625.75;;;12.58;100.00
12969;BME280;6549;53.128;8.182;2023-03-25T14:45:32;99615.09;;;12.60;100.00
12969;BME280;6549;53.128;8.182;2023-03-25T14:48:42;99605.44;;;12.33;100.00
12969;BME280;6549;53.128;8.182;2023-03-25T14:51:49;99610.91;;;12.17;100.00
12969;BME280;6549;53.128;8.182;2023-03-25T14:54:51;99588.69;;;11.84;100.00
12969;BME280;6549;53.128;8.182;2023-03-25T14:58:01;99589.72;;;11.70;100.00
12969;BME280;6549;53.128;8.182;2023-03-25T15:01:05;99595.94;;;11.75;100.00
12969;BME280;6549;53.128;8.182;2023-03-25T15:04:12;99600.00;;;11.66;100.00
12969;BME280;6549;53.128;8.182;2023-03-25T15:07:17;99615.03;;;11.62;100.00
12969;BME280;6549;53.128;8.182;2023-03-25T15:10:22;99596.25;;;11.57;100.00
12969;BME280;6549;53.128;8.182;2023-03-25T15:13:26;99599.53;;;11.48;100.00
12969;BME280;6549;53.128;8.182;2023-03-25T15:16:38;99605.16;;;11.41;100.00
12969;BME280;6549;53.128;8.182;2023-03-25T15:23:33;99602.19;;;11.32;100.00
12969;BME280;6549;53.128;8.182;2023-03-25T15:26:37;99601.41;;;11.32;100.00
12969;BME280;6549;53.128;8.182;2023-03-25T15:29:44;99624.34;;;11.21;100.00
12969;BME280;6549;53.128;8.182;2023-03-25T15:33:11;99663.81;;;11.08;100.00
12969;BME280;6549;53.128;8.182;2023-03-25T15:36:29;99690.31;;;10.64;100.00
12969;BME280;6549;53.128;8.182;2023-03-25T15:39:55;99682.59;;;9.77;100.00
12969;BME280;6549;53.128;8.182;2023-03-25T15:50:40;99695.13;;;8.57;100.00
12969;BME280;6549;53.128;8.182;2023-03-25T15:56:47;99663.13;;;8.19;100.00
12969;BME280;6549;53.128;8.182;2023-03-25T16:03:18;99662.38;;;8.22;100.00
12969;BME280;6549;53.128;8.182;2023-03-25T16:06:21;99656.47;;;8.38;100.00
12969;BME280;6549;53.128;8.182;2023-03-25T16:09:24;99638.44;;;8.47;100.00
12969;BME280;6549;53.128;8.182;2023-03-25T16:12:28;99644.97;;;8.68;100.00
12969;BME280;6549;53.128;8.182;2023-03-25T16:15:30;99642.63;;;8.70;100.00
12969;BME280;6549;53.128;8.182;2023-03-25T16:18:31;99654.34;;;8.74;100.00
12969;BME280;6549;53.128;8.182;2023-03-25T16:21:32;99661.00;;;8.73;100.00
12969;BME280;6549;53.128;8.182;2023-03-25T16:24:32;99657.13;;;8.67;100.00
12969;BME280;6549;53.128;8.182;2023-03-25T16:27:35;99655.16;;;8.71;100.00
12969;BME280;6549;53.128;8.182;2023-03-25T16:30:38;99653.19;;;8.71;100.00
12969;BME280;6549;53.128;8.182;2023-03-25T16:33:42;99657.09;;;8.74;100.00
12969;BME280;6549;53.128;8.182;2023-03-25T16:36:45;99655.91;;;8.75;100.00
12969;BME280;6549;53.128;8.182;2023-03-25T16:40:05;99655.53;;;8.73;100.00
12969;BME280;6549;53.128;8.182;2023-03-25T16:43:21;99660.22;;;8.76;100.00
12969;BME280;6549;53.128;8.182;2023-03-25T16:46:22;99661.38;;;8.75;100.00
12969;BME280;6549;53.128;8.182;2023-03-25T16:49:33;99652.81;;;8.69;100.00
12969;BME280;6549;53.128;8.182;2023-03-25T16:52:33;99663.00;;;8.65;100.00
12969;BME280;6549;53.128;8.182;2023-03-25T16:55:49;99660.25;;;8.65;100.00
12969;BME280;6549;53.128;8.182;2023-03-25T16:59:00;99670.81;;;8.63;100.00
12969;BME280;6549;53.128;8.182;2023-03-25T17:02:02;99687.69;;;8.54;100.00
12969;BME280;6549;53.128;8.182;2023-03-25T17:05:21;99683.81;;;8.48;100.00
12969;BME280;6549;53.128;8.182;2023-03-25T17:08:22;99681.06;;;8.48;100.00
12969;BME280;6549;53.128;8.182;2023-03-25T17:11:25;99677.94;;;8.43;100.00
12969;BME280;6549;53.128;8.182;2023-03-25T17:14:30;99704.19;;;8.33;100.00
12969;BME280;6549;53.128;8.182;2023-03-25T17:17:44;99713.56;;;8.32;100.00
12969;BME280;6549;53.128;8.182;2023-03-25T17:20:48;99714.72;;;8.28;100.00
12969;BME280;6549;53.128;8.182;2023-03-25T17:23:49;99717.88;;;8.30;100.00
12969;BME280;6549;53.128;8.182;2023-03-25T17:27:03;99723.34;;;8.26;100.00
12969;BME280;6549;53.128;8.182;2023-03-25T17:30:38;99724.91;;;8.27;100.00
12969;BME280;6549;53.128;8.182;2023-03-25T17:33:49;99725.28;;;8.26;100.00
12969;BME280;6549;53.128;8.182;2023-03-25T17:36:59;99741.72;;;8.22;100.00
12969;BME280;6549;53.128;8.182;2023-03-25T17:40:06;99736.66;;;8.17;100.00
12969;BME280;6549;53.128;8.182;2023-03-25T17:43:17;99748.75;;;8.16;100.00
12969;BME280;6549;53.128;8.182;2023-03-25T17:46:21;99743.69;;;8.04;100.00
12969;BME280;6549;53.128;8.182;2023-03-25T17:49:22;99753.09;;;7.99;100.00
12969;BME280;6549;53.128;8.182;2023-03-25T17:52:23;99762.06;;;8.00;100.00
12969;BME280;6549;53.128;8.182;2023-03-25T17:55:23;99767.53;;;7.93;100.00
12969;BME280;6549;53.128;8.182;2023-03-25T17:58:23;99774.97;;;7.96;100.00
12969;BME280;6549;53.128;8.182;2023-03-25T18:01:24;99789.44;;;7.96;100.00
12969;BME280;6549;53.128;8.182;2023-03-25T18:04:31;99800.75;;;8.02;100.00
12969;BME280;6549;53.128;8.182;2023-03-25T18:07:32;99797.63;;;8.03;100.00
12969;BME280;6549;53.128;8.182;2023-03-25T18:10:33;99802.31;;;8.10;100.00
12969;BME280;6549;53.128;8.182;2023-03-25T18:13:34;99813.25;;;8.10;100.00
12969;BME280;6549;53.128;8.182;2023-03-25T18:16:34;99811.69;;;8.02;100.00
12969;BME280;6549;53.128;8.182;2023-03-25T18:19:35;99816.78;;;8.00;100.00
12969;BME280;6549;53.128;8.182;2023-03-25T18:22:35;99826.16;;;8.02;100.00
12969;BME280;6549;53.128;8.182;2023-03-25T18:25:35;99831.22;;;7.97;100.00
12969;BME280;6549;53.128;8.182;2023-03-25T18:28:36;99840.59;;;7.92;100.00
12969;BME280;6549;53.128;8.182;2023-03-25T18:31:36;99840.59;;;7.89;100.00